TimeMDT,TemperatureF,Dew PointF,Humidity,Sea Level PressureIn,VisibilityMPH,Wind Direction,Wind SpeedMPH,Gust SpeedMPH,PrecipitationIn,Events,Conditions,WindDirDegrees,DateUTC
12:15 AM,31.8,29.8,92,29.98,10.0,SSE,4.6,-,N/A,,Clear,160,2013-04-13 06:15:00
12:35 AM,31.5,30.0,94,29.98,10.0,SSE,5.8,-,N/A,,Clear,150,2013-04-13 06:35:00
12:55 AM,31.1,29.8,95,29.98,10.0,SSE,4.6,-,N/A,,Clear,160,2013-04-13 06:55:00
1:15 AM,31.1,30.0,96,29.98,10.0,Calm,Calm,-,N/A,,Clear,0,2013-04-13 07:15:00
1:35 AM,30.2,29.1,96,29.97,10.0,Calm,Calm,-,N/A,,Clear,0,2013-04-13 07:35:00
1:55 AM,30.7,29.1,94,29.96,10.0,SSE,4.6,-,N/A,,Scattered Clouds,150,2013-04-13 07:55:00
2:15 AM,29.7,28.2,94,29.95,10.0,SSE,5.8,-,N/A,,Scattered Clouds,160,2013-04-13 08:15:00
2:35 AM,29.7,28.2,94,29.94,10.0,SSE,5.8,-,N/A,,Clear,150,2013-04-13 08:35:00
2:55 AM,30.0,28.8,95,29.92,10.0,SE,8.1,-,N/A,,Clear,140,2013-04-13 08:55:00
3:15 AM,29.5,28.0,94,29.91,10.0,SSE,9.2,-,N/A,,Clear,150,2013-04-13 09:15:00
3:35 AM,29.5,28.4,96,29.90,10.0,South,11.5,-,N/A,,Scattered Clouds,170,2013-04-13 09:35:00
3:55 AM,31.1,30.2,96,29.89,10.0,SSE,9.2,-,N/A,,Overcast,160,2013-04-13 09:55:00
4:15 AM,32.0,31.1,96,29.88,10.0,SSE,10.4,-,N/A,,Overcast,150,2013-04-13 10:15:00
4:35 AM,32.4,32.0,99,29.85,10.0,SSE,11.5,16.1,N/A,,Overcast,150,2013-04-13 10:35:00
4:55 AM,32.9,32.0,96,29.84,10.0,SSE,13.8,17.3,N/A,,Overcast,150,2013-04-13 10:55:00
5:15 AM,32.9,32.0,96,29.82,10.0,SSE,12.7,-,N/A,,Overcast,150,2013-04-13 11:15:00
5:35 AM,32.0,31.3,97,29.81,10.0,SE,10.4,-,N/A,,Mostly Cloudy,140,2013-04-13 11:35:00
5:55 AM,31.8,30.9,96,29.81,10.0,SSE,9.2,-,N/A,,Clear,150,2013-04-13 11:55:00
6:15 AM,32.0,31.5,98,29.79,10.0,SSE,9.2,-,N/A,,Clear,160,2013-04-13 12:15:00
6:35 AM,32.2,32.0,99,29.78,10.0,SSE,11.5,-,N/A,,Clear,160,2013-04-13 12:35:00
6:55 AM,33.3,32.2,96,29.77,10.0,SSE,11.5,-,N/A,,Clear,160,2013-04-13 12:55:00
7:15 AM,34.2,32.2,92,29.76,10.0,SSE,11.5,-,N/A,,Clear,160,2013-04-13 13:15:00
7:35 AM,34.7,32.4,91,29.74,10.0,South,10.4,-,N/A,,Clear,170,2013-04-13 13:35:00
7:55 AM,36.0,32.7,88,29.74,10.0,South,9.2,-,N/A,,Clear,190,2013-04-13 13:55:00
8:15 AM,36.5,33.3,88,29.73,10.0,South,11.5,-,N/A,,Clear,180,2013-04-13 14:15:00
8:35 AM,36.9,33.3,87,29.72,10.0,South,9.2,-,N/A,,Clear,190,2013-04-13 14:35:00
8:55 AM,37.8,34.0,86,29.70,10.0,SSW,8.1,-,N/A,,Clear,200,2013-04-13 14:55:00
9:15 AM,38.5,34.2,84,29.69,10.0,SSW,6.9,-,N/A,,Clear,200,2013-04-13 15:15:00
9:35 AM,38.7,34.2,84,29.69,10.0,West,6.9,-,N/A,,Clear,260,2013-04-13 15:35:00
9:55 AM,38.8,34.2,83,29.69,10.0,West,3.5,-,N/A,,Clear,280,2013-04-13 15:55:00
10:15 AM,39.4,33.4,79,29.67,10.0,Calm,Calm,-,N/A,,Clear,0,2013-04-13 16:15:00
10:35 AM,41.0,34.0,76,29.67,10.0,Calm,Calm,-,N/A,,Scattered Clouds,0,2013-04-13 16:35:00
10:55 AM,42.3,33.4,71,29.66,10.0,Calm,Calm,-,N/A,,Scattered Clouds,0,2013-04-13 16:55:00
11:15 AM,44.6,34.7,68,29.65,10.0,Calm,Calm,-,N/A,,Clear,0,2013-04-13 17:15:00
11:35 AM,45.3,34.0,65,29.62,10.0,Calm,Calm,-,N/A,,Clear,0,2013-04-13 17:35:00
11:55 AM,48.9,34.9,58,29.61,10.0,ESE,5.8,-,N/A,,Clear,120,2013-04-13 17:55:00
12:15 PM,50.0,35.2,57,29.60,10.0,SE,4.6,-,N/A,,Clear,140,2013-04-13 18:15:00
12:35 PM,53.6,35.2,50,29.58,10.0,SE,5.8,-,N/A,,Clear,140,2013-04-13 18:35:00
12:55 PM,55.0,35.1,47,29.57,10.0,SSE,6.9,-,N/A,,Clear,160,2013-04-13 18:55:00
1:15 PM,56.7,35.1,44,29.56,10.0,Calm,Calm,-,N/A,,Clear,0,2013-04-13 19:15:00
1:35 PM,57.7,34.2,41,29.55,10.0,Calm,Calm,-,N/A,,Clear,0,2013-04-13 19:35:00
1:55 PM,58.5,34.0,40,29.54,10.0,Calm,Calm,-,N/A,,Clear,0,2013-04-13 19:55:00
2:15 PM,59.2,32.2,36,29.53,10.0,Calm,Calm,-,N/A,,Clear,0,2013-04-13 20:15:00
2:35 PM,60.4,32.4,35,29.51,10.0,NE,3.5,-,N/A,,Clear,40,2013-04-13 20:35:00
2:55 PM,60.8,32.0,34,29.50,10.0,NE,4.6,-,N/A,,Clear,50,2013-04-13 20:55:00
3:15 PM,61.9,32.2,33,29.49,10.0,ENE,8.1,-,N/A,,Clear,70,2013-04-13 21:15:00
3:35 PM,61.9,32.0,33,29.47,10.0,ENE,10.4,-,N/A,,Clear,70,2013-04-13 21:35:00
3:55 PM,61.7,31.1,32,29.47,10.0,ENE,9.2,-,N/A,,Clear,70,2013-04-13 21:55:00
4:15 PM,62.1,31.3,31,29.46,10.0,East,8.1,-,N/A,,Clear,80,2013-04-13 22:15:00
4:35 PM,61.9,30.2,30,29.45,10.0,ENE,10.4,-,N/A,,Clear,60,2013-04-13 22:35:00
4:55 PM,61.3,29.3,30,29.44,10.0,ENE,10.4,-,N/A,,Clear,60,2013-04-13 22:55:00
5:15 PM,59.9,32.0,35,29.44,10.0,ENE,11.5,-,N/A,,Scattered Clouds,70,2013-04-13 23:15:00
5:35 PM,58.1,34.2,41,29.44,10.0,ENE,10.4,-,N/A,,Mostly Cloudy,60,2013-04-13 23:35:00
5:55 PM,56.8,35.6,45,29.43,10.0,NE,9.2,-,N/A,,Mostly Cloudy,40,2013-04-13 23:55:00
6:15 PM,55.4,36.9,50,29.43,10.0,NNE,9.2,-,N/A,,Scattered Clouds,20,2013-04-14 00:15:00
6:35 PM,54.5,36.9,51,29.43,10.0,NE,10.4,-,N/A,,Mostly Cloudy,40,2013-04-14 00:35:00
6:55 PM,53.8,36.1,51,29.43,10.0,North,11.5,-,N/A,,Overcast,10,2013-04-14 00:55:00
7:15 PM,52.2,38.3,59,29.44,10.0,North,17.3,-,N/A,,Overcast,10,2013-04-14 01:15:00
7:35 PM,50.0,39.2,66,29.43,10.0,North,18.4,-,N/A,,Overcast,360,2013-04-14 01:35:00
7:55 PM,49.1,37.8,65,29.43,10.0,North,18.4,27.6,N/A,,Overcast,360,2013-04-14 01:55:00
8:15 PM,53.4,31.8,44,29.42,10.0,NNE,13.8,32.2,N/A,,Overcast,30,2013-04-14 02:15:00
8:55 PM,53.6,31.3,43,29.39,10.0,NE,18.4,24.2,N/A,,Mostly Cloudy,40,2013-04-14 02:55:00
9:15 PM,53.1,31.3,43,29.39,10.0,NE,13.8,18.4,N/A,,Mostly Cloudy,50,2013-04-14 03:15:00
9:35 PM,52.2,32.2,47,29.43,10.0,NE,15.0,-,N/A,,Mostly Cloudy,40,2013-04-14 03:35:00
9:55 PM,50.5,34.5,54,29.44,10.0,NNE,3.5,-,N/A,,Mostly Cloudy,20,2013-04-14 03:55:00
10:15 PM,49.8,35.1,57,29.44,10.0,NNE,11.5,17.3,N/A,,Scattered Clouds,30,2013-04-14 04:15:00
10:35 PM,48.2,35.1,60,29.44,10.0,NNE,9.2,-,N/A,,Mostly Cloudy,20,2013-04-14 04:35:00
10:55 PM,48.9,34.7,58,29.45,10.0,North,15.0,20.7,N/A,,Overcast,10,2013-04-14 04:55:00
11:15 PM,48.2,34.3,59,29.48,10.0,NNW,16.1,-,N/A,,Overcast,330,2013-04-14 05:15:00
11:35 PM,48.0,33.4,57,29.48,10.0,North,17.3,-,N/A,,Overcast,350,2013-04-14 05:35:00
11:55 PM,46.0,37.6,72,29.50,10.0,NNW,27.6,32.2,N/A,,Overcast,330,2013-04-14 05:55:00